Terminal Aerodrome Forecast
Issued by NWS

Home | Current Version | Previous Version | Text Only | Print | Product List | Glossary On
Versions: 1 2 3 4 5 6 7 8 9 10 11 12 13 14 15 16 17 18 19 20 21 22 23 24
000
FTUS46 KPQR 171743
TAFONP
TAF
KONP 171743Z 1718/1818 17010G18KT P6SM -RA SCT025 OVC040
     FM172000 18015G25KT 4SM -RA SCT015 OVC030
     FM180100 19025G35KT 3SM -RA SCT008 BKN015 OVC030
     FM180600 19030G45KT 2SM -RA BKN008 OVC015=

USA.gov is the U.S. government's official web portal to all federal, state and local government web resources and services.